sensor_id;sensor_type;location;lat;lon;timestamp;pressure;altitude;pressure_sealevel;temperature;humidity
23433;BME280;41331;45.412;10.992;2023-04-09T00:01:06;101302.66;;;11.23;90.13
23433;BME280;41331;45.412;10.992;2023-04-09T00:03:34;101303.28;;;11.20;90.62
23433;BME280;41331;45.412;10.992;2023-04-09T00:06:01;101302.31;;;11.15;91.57
23433;BME280;41331;45.412;10.992;2023-04-09T00:08:29;101298.94;;;11.19;92.33
23433;BME280;41331;45.412;10.992;2023-04-09T00:10:56;101294.22;;;11.33;93.03
23433;BME280;41331;45.412;10.992;2023-04-09T00:13:24;101302.53;;;11.28;94.14
23433;BME280;41331;45.412;10.992;2023-04-09T00:16:05;101295.34;;;11.32;94.42
23433;BME280;41331;45.412;10.992;2023-04-09T00:18:32;101298.91;;;11.41;94.80
23433;BME280;41331;45.412;10.992;2023-04-09T00:20:59;101299.34;;;11.34;96.24
23433;BME280;41331;45.412;10.992;2023-04-09T00:23:27;101299.34;;;11.34;97.78
23433;BME280;41331;45.412;10.992;2023-04-09T00:25:54;101301.28;;;11.34;98.36
23433;BME280;41331;45.412;10.992;2023-04-09T00:28:21;101303.97;;;11.25;100.00
23433;BME280;41331;45.412;10.992;2023-04-09T00:30:48;101304.78;;;11.26;100.00
23433;BME280;41331;45.412;10.992;2023-04-09T00:33:15;101301.91;;;11.31;100.00
23433;BME280;41331;45.412;10.992;2023-04-09T00:35:42;101299.34;;;11.34;100.00
23433;BME280;41331;45.412;10.992;2023-04-09T00:38:09;101303.09;;;11.16;100.00
23433;BME280;41331;45.412;10.992;2023-04-09T00:40:36;101299.38;;;11.12;100.00
23433;BME280;41331;45.412;10.992;2023-04-09T00:43:04;101301.38;;;10.98;100.00
23433;BME280;41331;45.412;10.992;2023-04-09T00:45:31;101297.22;;;11.00;100.00
23433;BME280;41331;45.412;10.992;2023-04-09T00:47:58;101292.34;;;11.11;100.00
23433;BME280;41331;45.412;10.992;2023-04-09T00:50:26;101286.75;;;10.94;100.00
23433;BME280;41331;45.412;10.992;2023-04-09T00:52:53;101283.97;;;11.07;100.00
23433;BME280;41331;45.412;10.992;2023-04-09T00:55:20;101285.28;;;11.10;100.00
23433;BME280;41331;45.412;10.992;2023-04-09T00:57:48;101290.72;;;11.10;100.00
23433;BME280;41331;45.412;10.992;2023-04-09T01:00:17;101292.88;;;10.77;100.00
23433;BME280;41331;45.412;10.992;2023-04-09T01:02:44;101295.25;;;10.70;100.00
23433;BME280;41331;45.412;10.992;2023-04-09T01:05:12;101294.94;;;10.71;100.00
23433;BME280;41331;45.412;10.992;2023-04-09T01:10:28;101304.22;;;10.70;100.00
23433;BME280;41331;45.412;10.992;2023-04-09T01:13:07;101312.44;;;10.79;100.00
23433;BME280;41331;45.412;10.992;2023-04-09T01:15:38;101314.31;;;10.92;100.00
23433;BME280;41331;45.412;10.992;2023-04-09T01:18:32;101312.56;;;10.74;100.00
23433;BME280;41331;45.412;10.992;2023-04-09T01:26:04;101323.00;;;10.58;100.00
23433;BME280;41331;45.412;10.992;2023-04-09T01:28:42;101326.94;;;10.52;100.00
23433;BME280;41331;45.412;10.992;2023-04-09T01:31:12;101333.28;;;10.61;100.00
23433;BME280;41331;45.412;10.992;2023-04-09T01:33:40;101329.63;;;10.66;100.00
23433;BME280;41331;45.412;10.992;2023-04-09T01:36:08;101333.84;;;10.72;100.00
23433;BME280;41331;45.412;10.992;2023-04-09T01:38:36;101327.72;;;10.66;100.00
23433;BME280;41331;45.412;10.992;2023-04-09T01:41:05;101323.88;;;10.67;100.00
23433;BME280;41331;45.412;10.992;2023-04-09T01:43:33;101331.72;;;10.69;100.00
23433;BME280;41331;45.412;10.992;2023-04-09T01:46:01;101333.84;;;10.72;100.00
23433;BME280;41331;45.412;10.992;2023-04-09T01:48:29;101342.63;;;10.69;100.00
23433;BME280;41331;45.412;10.992;2023-04-09T01:50:57;101334.56;;;10.63;100.00
23433;BME280;41331;45.412;10.992;2023-04-09T01:53:24;101339.31;;;10.58;100.00
23433;BME280;41331;45.412;10.992;2023-04-09T01:55:54;101337.13;;;10.60;100.00
23433;BME280;41331;45.412;10.992;2023-04-09T01:58:24;101329.28;;;10.45;100.00
23433;BME280;41331;45.412;10.992;2023-04-09T02:00:59;101338.75;;;10.47;100.00
23433;BME280;41331;45.412;10.992;2023-04-09T02:03:31;101335.31;;;10.42;100.00
23433;BME280;41331;45.412;10.992;2023-04-09T02:06:18;101341.56;;;10.42;100.00
23433;BME280;41331;45.412;10.992;2023-04-09T02:08:46;101336.03;;;10.33;100.00
23433;BME280;41331;45.412;10.992;2023-04-09T02:11:14;101336.13;;;10.28;100.00
23433;BME280;41331;45.412;10.992;2023-04-09T02:13:42;101336.72;;;10.39;100.00
23433;BME280;41331;45.412;10.992;2023-04-09T02:16:10;101340.97;;;10.45;100.00
23433;BME280;41331;45.412;10.992;2023-04-09T02:18:39;101344.50;;;10.46;100.00
23433;BME280;41331;45.412;10.992;2023-04-09T02:21:06;101340.88;;;10.50;100.00
23433;BME280;41331;45.412;10.992;2023-04-09T02:23:33;101344.66;;;10.63;100.00
23433;BME280;41331;45.412;10.992;2023-04-09T02:26:00;101340.13;;;10.58;100.00
23433;BME280;41331;45.412;10.992;2023-04-09T02:28:28;101341.75;;;10.59;100.00
23433;BME280;41331;45.412;10.992;2023-04-09T02:30:55;101336.91;;;10.56;100.00
23433;BME280;41331;45.412;10.992;2023-04-09T02:33:22;101339.75;;;10.51;100.00
23433;BME280;41331;45.412;10.992;2023-04-09T02:35:49;101334.19;;;10.56;100.00
23433;BME280;41331;45.412;10.992;2023-04-09T02:38:18;101340.44;;;10.57;100.00
23433;BME280;41331;45.412;10.992;2023-04-09T02:40:46;101342.03;;;10.58;100.00
23433;BME280;41331;45.412;10.992;2023-04-09T02:43:13;101336.00;;;10.61;100.00
23433;BME280;41331;45.412;10.992;2023-04-09T02:45:40;101341.81;;;10.68;100.00
23433;BME280;41331;45.412;10.992;2023-04-09T02:48:07;101330.75;;;10.65;100.00
23433;BME280;41331;45.412;10.992;2023-04-09T02:50:34;101334.44;;;10.69;100.00
23433;BME280;41331;45.412;10.992;2023-04-09T02:53:02;101338.41;;;10.62;100.00
23433;BME280;41331;45.412;10.992;2023-04-09T02:55:29;101332.84;;;10.68;100.00
23433;BME280;41331;45.412;10.992;2023-04-09T02:57:56;101336.25;;;10.73;100.00
23433;BME280;41331;45.412;10.992;2023-04-09T03:00:24;101326.88;;;10.79;100.00
23433;BME280;41331;45.412;10.992;2023-04-09T03:02:51;101330.56;;;10.83;100.00
23433;BME280;41331;45.412;10.992;2023-04-09T03:05:19;101326.97;;;10.74;100.00
23433;BME280;41331;45.412;10.992;2023-04-09T03:07:46;101330.00;;;10.73;100.00
23433;BME280;41331;45.412;10.992;2023-04-09T03:10:14;101335.97;;;10.75;100.00
23433;BME280;41331;45.412;10.992;2023-04-09T03:12:41;101331.69;;;10.82;100.00
23433;BME280;41331;45.412;10.992;2023-04-09T03:15:10;101329.47;;;10.84;100.00
23433;BME280;41331;45.412;10.992;2023-04-09T03:17:37;101327.84;;;10.83;100.00
23433;BME280;41331;45.412;10.992;2023-04-09T03:20:05;101333.19;;;10.88;100.00
23433;BME280;41331;45.412;10.992;2023-04-09T03:22:37;101336.81;;;10.84;100.00
23433;BME280;41331;45.412;10.992;2023-04-09T03:25:19;101330.28;;;10.85;100.00
23433;BME280;41331;45.412;10.992;2023-04-09T03:27:50;101331.25;;;10.89;100.00
23433;BME280;41331;45.412;10.992;2023-04-09T03:30:26;101340.41;;;10.93;100.00
23433;BME280;41331;45.412;10.992;2023-04-09T03:32:54;101336.59;;;10.94;100.00
23433;BME280;41331;45.412;10.992;2023-04-09T03:35:23;101336.28;;;10.96;100.00
23433;BME280;41331;45.412;10.992;2023-04-09T03:37:56;101333.00;;;10.85;100.00
23433;BME280;41331;45.412;10.992;2023-04-09T03:40:23;101331.56;;;10.87;100.00
23433;BME280;41331;45.412;10.992;2023-04-09T03:42:50;101337.44;;;10.81;100.00
23433;BME280;41331;45.412;10.992;2023-04-09T03:45:18;101335.91;;;10.88;100.00
23433;BME280;41331;45.412;10.992;2023-04-09T03:47:47;101332.50;;;10.83;100.00
23433;BME280;41331;45.412;10.992;2023-04-09T03:50:16;101331.00;;;10.77;100.00
23433;BME280;41331;45.412;10.992;2023-04-09T03:52:47;101336.44;;;10.77;100.00
23433;BME280;41331;45.412;10.992;2023-04-09T03:55:15;101339.66;;;10.79;100.00
23433;BME280;41331;45.412;10.992;2023-04-09T03:57:42;101335.97;;;10.75;100.00
23433;BME280;41331;45.412;10.992;2023-04-09T04:00:13;101334.34;;;10.74;100.00
23433;BME280;41331;45.412;10.992;2023-04-09T04:02:49;101335.34;;;10.78;100.00
23433;BME280;41331;45.412;10.992;2023-04-09T04:05:27;101333.03;;;10.71;100.00
23433;BME280;41331;45.412;10.992;2023-04-09T04:07:57;101337.16;;;10.69;100.00
23433;BME280;41331;45.412;10.992;2023-04-09T04:10:28;101339.28;;;10.72;100.00
23433;BME280;41331;45.412;10.992;2023-04-09T04:12:55;101342.25;;;10.61;100.00
23433;BME280;41331;45.412;10.992;2023-04-09T04:15:40;101336.09;;;10.56;100.00
23433;BME280;41331;45.412;10.992;2023-04-09T04:18:09;101344.59;;;10.54;100.00
23433;BME280;41331;45.412;10.992;2023-04-09T04:20:41;101348.88;;;10.69;100.00
23433;BME280;41331;45.412;10.992;2023-04-09T04:23:12;101344.13;;;10.75;100.00
23433;BME280;41331;45.412;10.992;2023-04-09T04:25:59;101342.34;;;10.70;100.00
23433;BME280;41331;45.412;10.992;2023-04-09T04:28:31;101347.03;;;10.78;100.00
23433;BME280;41331;45.412;10.992;2023-04-09T04:30:59;101349.06;;;10.73;99.82
23433;BME280;41331;45.412;10.992;2023-04-09T04:33:28;101348.97;;;10.64;98.34
23433;BME280;41331;45.412;10.992;2023-04-09T04:38:39;101363.81;;;10.58;96.26
23433;BME280;41331;45.412;10.992;2023-04-09T04:41:16;101366.09;;;10.78;92.99
23433;BME280;41331;45.412;10.992;2023-04-09T04:43:50;101367.44;;;10.67;94.88
23433;BME280;41331;45.412;10.992;2023-04-09T04:46:21;101362.44;;;10.83;93.34
23433;BME280;41331;45.412;10.992;2023-04-09T04:48:48;101364.22;;;10.65;92.55
23433;BME280;41331;45.412;10.992;2023-04-09T04:51:16;101366.47;;;10.49;96.63
23433;BME280;41331;45.412;10.992;2023-04-09T04:53:55;101371.13;;;10.35;98.43
23433;BME280;41331;45.412;10.992;2023-04-09T04:56:22;101363.34;;;10.42;96.81
23433;BME280;41331;45.412;10.992;2023-04-09T04:59:00;101366.69;;;10.25;98.96
23433;BME280;41331;45.412;10.992;2023-04-09T05:01:33;101375.13;;;10.24;98.72
23433;BME280;41331;45.412;10.992;2023-04-09T05:04:01;101366.69;;;10.25;98.01
23433;BME280;41331;45.412;10.992;2023-04-09T05:06:32;101369.41;;;10.25;96.47
23433;BME280;41331;45.412;10.992;2023-04-09T05:09:03;101376.56;;;10.35;98.72
23433;BME280;41331;45.412;10.992;2023-04-09T05:11:39;101369.91;;;10.41;94.76
23433;BME280;41331;45.412;10.992;2023-04-09T05:14:12;101376.47;;;10.40;93.75
23433;BME280;41331;45.412;10.992;2023-04-09T05:16:39;101372.41;;;10.51;93.86
23433;BME280;41331;45.412;10.992;2023-04-09T05:19:07;101381.59;;;10.55;90.85
23433;BME280;41331;45.412;10.992;2023-04-09T05:21:37;101375.91;;;10.66;88.13
23433;BME280;41331;45.412;10.992;2023-04-09T05:24:04;101380.94;;;10.72;86.78
23433;BME280;41331;45.412;10.992;2023-04-09T05:26:33;101389.50;;;10.79;86.76
23433;BME280;41331;45.412;10.992;2023-04-09T05:29:01;101384.25;;;10.69;86.49
23433;BME280;41331;45.412;10.992;2023-04-09T05:31:28;101385.38;;;10.68;86.60
23433;BME280;41331;45.412;10.992;2023-04-09T05:34:01;101386.34;;;10.86;86.28
23433;BME280;41331;45.412;10.992;2023-04-09T05:36:44;101393.91;;;10.89;85.45
23433;BME280;41331;45.412;10.992;2023-04-09T05:39:11;101392.81;;;10.90;86.51
23433;BME280;41331;45.412;10.992;2023-04-09T05:41:38;101389.16;;;10.95;85.97
23433;BME280;41331;45.412;10.992;2023-04-09T05:44:26;101396.91;;;11.01;84.86
23433;BME280;41331;45.412;10.992;2023-04-09T05:47:00;101396.59;;;11.03;84.32
23433;BME280;41331;45.412;10.992;2023-04-09T05:49:34;101401.63;;;11.09;85.14
23433;BME280;41331;45.412;10.992;2023-04-09T05:52:07;101402.56;;;11.05;84.52
23433;BME280;41331;45.412;10.992;2023-04-09T05:54:34;101398.38;;;11.07;83.67
23433;BME280;41331;45.412;10.992;2023-04-09T05:57:03;101405.88;;;11.02;84.34
23433;BME280;41331;45.412;10.992;2023-04-09T05:59:34;101404.50;;;10.91;83.89
23433;BME280;41331;45.412;10.992;2023-04-09T06:02:01;101404.31;;;10.87;85.02
23433;BME280;41331;45.412;10.992;2023-04-09T06:04:29;101403.94;;;11.02;84.39
23433;BME280;41331;45.412;10.992;2023-04-09T06:06:56;101402.47;;;10.96;83.68
23433;BME280;41331;45.412;10.992;2023-04-09T06:09:26;101404.66;;;10.94;84.10
23433;BME280;41331;45.412;10.992;2023-04-09T06:11:56;101410.78;;;11.13;83.29
23433;BME280;41331;45.412;10.992;2023-04-09T06:14:23;101411.22;;;11.07;84.31
23433;BME280;41331;45.412;10.992;2023-04-09T06:16:51;101418.34;;;11.17;82.95
23433;BME280;41331;45.412;10.992;2023-04-09T06:19:18;101412.53;;;11.09;82.03
23433;BME280;41331;45.412;10.992;2023-04-09T06:21:45;101419.06;;;11.08;82.74
23433;BME280;41331;45.412;10.992;2023-04-09T06:24:12;101417.50;;;11.30;82.00
23433;BME280;41331;45.412;10.992;2023-04-09T06:26:39;101423.56;;;11.27;80.26
23433;BME280;41331;45.412;10.992;2023-04-09T06:29:06;101422.56;;;11.45;79.94
23433;BME280;41331;45.412;10.992;2023-04-09T06:31:33;101426.38;;;11.44;79.35
23433;BME280;41331;45.412;10.992;2023-04-09T06:34:01;101423.50;;;11.40;78.42
23433;BME280;41331;45.412;10.992;2023-04-09T06:36:28;101419.50;;;11.69;79.36
23433;BME280;41331;45.412;10.992;2023-04-09T06:38:56;101431.59;;;11.77;78.34
23433;BME280;41331;45.412;10.992;2023-04-09T06:41:23;101429.47;;;11.74;77.85
23433;BME280;41331;45.412;10.992;2023-04-09T06:43:51;101430.97;;;11.80;77.49
23433;BME280;41331;45.412;10.992;2023-04-09T06:46:19;101429.56;;;11.60;76.82
23433;BME280;41331;45.412;10.992;2023-04-09T06:48:47;101437.78;;;11.68;76.83
23433;BME280;41331;45.412;10.992;2023-04-09T06:51:14;101433.13;;;11.69;75.30
23433;BME280;41331;45.412;10.992;2023-04-09T06:53:41;101437.03;;;11.77;76.19
23433;BME280;41331;45.412;10.992;2023-04-09T06:56:08;101431.22;;;11.70;75.39
23433;BME280;41331;45.412;10.992;2023-04-09T06:58:38;101433.94;;;12.23;74.70
23433;BME280;41331;45.412;10.992;2023-04-09T07:01:05;101440.72;;;12.91;71.43
23433;BME280;41331;45.412;10.992;2023-04-09T07:03:34;101442.22;;;13.24;69.72
23433;BME280;41331;45.412;10.992;2023-04-09T07:06:01;101440.13;;;13.38;67.37
23433;BME280;41331;45.412;10.992;2023-04-09T07:08:28;101430.44;;;13.49;66.52
23433;BME280;41331;45.412;10.992;2023-04-09T07:10:55;101443.44;;;12.91;65.68
23433;BME280;41331;45.412;10.992;2023-04-09T07:13:23;101438.41;;;13.89;63.48
23433;BME280;41331;45.412;10.992;2023-04-09T07:15:50;101445.56;;;13.55;63.37
23433;BME280;41331;45.412;10.992;2023-04-09T07:18:17;101448.47;;;13.24;64.96
23433;BME280;41331;45.412;10.992;2023-04-09T07:20:44;101445.41;;;13.17;66.36
23433;BME280;41331;45.412;10.992;2023-04-09T07:23:11;101443.81;;;13.51;66.12
23433;BME280;41331;45.412;10.992;2023-04-09T07:25:38;101453.47;;;13.57;63.98
23433;BME280;41331;45.412;10.992;2023-04-09T07:28:05;101448.28;;;13.64;62.80
23433;BME280;41331;45.412;10.992;2023-04-09T07:30:33;101443.00;;;14.61;60.41
23433;BME280;41331;45.412;10.992;2023-04-09T07:33:00;101453.66;;;14.54;59.83
23433;BME280;41331;45.412;10.992;2023-04-09T07:35:27;101451.63;;;14.34;60.20
23433;BME280;41331;45.412;10.992;2023-04-09T07:37:54;101450.53;;;15.15;58.22
23433;BME280;41331;45.412;10.992;2023-04-09T07:40:21;101452.41;;;16.35;56.68
23433;BME280;41331;45.412;10.992;2023-04-09T07:42:48;101459.16;;;16.98;51.82
23433;BME280;41331;45.412;10.992;2023-04-09T07:45:16;101467.13;;;15.18;54.81
23433;BME280;41331;45.412;10.992;2023-04-09T07:47:43;101462.44;;;14.98;56.65
23433;BME280;41331;45.412;10.992;2023-04-09T07:50:11;101462.56;;;15.01;57.20
23433;BME280;41331;45.412;10.992;2023-04-09T07:52:38;101463.63;;;14.59;57.82
23433;BME280;41331;45.412;10.992;2023-04-09T07:55:05;101469.28;;;14.54;57.18
23433;BME280;41331;45.412;10.992;2023-04-09T07:57:32;101472.72;;;13.86;58.16
23433;BME280;41331;45.412;10.992;2023-04-09T08:00:00;101470.03;;;13.52;59.74
23433;BME280;41331;45.412;10.992;2023-04-09T08:02:38;101477.00;;;14.13;58.73
23433;BME280;41331;45.412;10.992;2023-04-09T08:05:06;101471.81;;;14.20;57.27
23433;BME280;41331;45.412;10.992;2023-04-09T08:07:33;101469.84;;;13.65;57.32
23433;BME280;41331;45.412;10.992;2023-04-09T08:10:01;101472.38;;;14.52;56.37
23433;BME280;41331;45.412;10.992;2023-04-09T08:12:28;101475.41;;;15.51;53.75
23433;BME280;41331;45.412;10.992;2023-04-09T08:14:55;101476.69;;;15.12;52.25
23433;BME280;41331;45.412;10.992;2023-04-09T08:17:22;101473.97;;;14.83;53.09
23433;BME280;41331;45.412;10.992;2023-04-09T08:19:50;101474.47;;;15.68;52.40
23433;BME280;41331;45.412;10.992;2023-04-09T08:22:17;101487.03;;;16.72;48.26
23433;BME280;41331;45.412;10.992;2023-04-09T08:24:49;101475.44;;;16.42;47.78
23433;BME280;41331;45.412;10.992;2023-04-09T08:27:16;101483.88;;;15.79;51.65
23433;BME280;41331;45.412;10.992;2023-04-09T08:29:43;101483.81;;;16.00;48.96
23433;BME280;41331;45.412;10.992;2023-04-09T08:32:11;101484.78;;;17.15;45.40
23433;BME280;41331;45.412;10.992;2023-04-09T08:34:38;101487.97;;;16.19;47.35
23433;BME280;41331;45.412;10.992;2023-04-09T08:37:05;101495.16;;;15.99;48.86
23433;BME280;41331;45.412;10.992;2023-04-09T08:39:33;101498.19;;;15.85;50.99
23433;BME280;41331;45.412;10.992;2023-04-09T08:42:00;101486.75;;;15.83;48.40
23433;BME280;41331;45.412;10.992;2023-04-09T08:44:28;101494.19;;;15.62;48.83
23433;BME280;41331;45.412;10.992;2023-04-09T08:46:56;101497.41;;;16.54;47.69
23433;BME280;41331;45.412;10.992;2023-04-09T08:49:25;101482.78;;;18.11;44.63
23433;BME280;41331;45.412;10.992;2023-04-09T08:51:52;101480.25;;;17.75;42.87
23433;BME280;41331;45.412;10.992;2023-04-09T08:54:19;101483.91;;;16.98;44.79
23433;BME280;41331;45.412;10.992;2023-04-09T08:56:49;101483.63;;;17.16;45.82
23433;BME280;41331;45.412;10.992;2023-04-09T08:59:16;101486.50;;;16.46;46.47
23433;BME280;41331;45.412;10.992;2023-04-09T09:01:46;101493.47;;;16.19;48.03
23433;BME280;41331;45.412;10.992;2023-04-09T09:04:19;101486.25;;;16.14;48.83
23433;BME280;41331;45.412;10.992;2023-04-09T09:06:46;101487.03;;;16.02;48.88
23433;BME280;41331;45.412;10.992;2023-04-09T09:09:14;101486.16;;;15.36;50.15
23433;BME280;41331;45.412;10.992;2023-04-09T09:11:45;101484.59;;;14.84;51.72
23433;BME280;41331;45.412;10.992;2023-04-09T09:14:14;101487.97;;;15.11;51.42
23433;BME280;41331;45.412;10.992;2023-04-09T09:16:43;101480.88;;;15.10;51.21
23433;BME280;41331;45.412;10.992;2023-04-09T09:19:27;101485.97;;;15.41;51.98
23433;BME280;41331;45.412;10.992;2023-04-09T09:22:04;101481.78;;;14.72;51.75
23433;BME280;41331;45.412;10.992;2023-04-09T09:24:32;101479.00;;;16.79;51.01
23433;BME280;41331;45.412;10.992;2023-04-09T09:27:00;101477.19;;;18.08;43.88
23433;BME280;41331;45.412;10.992;2023-04-09T09:29:28;101476.28;;;19.18;41.78
23433;BME280;41331;45.412;10.992;2023-04-09T09:31:55;101477.81;;;19.93;40.28
23433;BME280;41331;45.412;10.992;2023-04-09T09:34:23;101473.03;;;18.97;41.48
23433;BME280;41331;45.412;10.992;2023-04-09T09:36:51;101478.69;;;18.84;42.87
23433;BME280;41331;45.412;10.992;2023-04-09T09:39:18;101476.56;;;19.32;41.82
23433;BME280;41331;45.412;10.992;2023-04-09T09:41:46;101462.25;;;19.07;41.54
23433;BME280;41331;45.412;10.992;2023-04-09T09:44:36;101470.16;;;17.95;43.46
23433;BME280;41331;45.412;10.992;2023-04-09T09:47:02;101479.03;;;17.60;44.76
23433;BME280;41331;45.412;10.992;2023-04-09T09:49:30;101483.25;;;17.29;45.38
23433;BME280;41331;45.412;10.992;2023-04-09T09:51:57;101487.00;;;16.85;48.44
23433;BME280;41331;45.412;10.992;2023-04-09T09:54:25;101486.06;;;16.56;48.19
23433;BME280;41331;45.412;10.992;2023-04-09T09:56:54;101477.00;;;16.31;48.77
23433;BME280;41331;45.412;10.992;2023-04-09T09:59:25;101480.81;;;16.39;50.42
23433;BME280;41331;45.412;10.992;2023-04-09T10:02:17;101480.69;;;16.47;47.59
23433;BME280;41331;45.412;10.992;2023-04-09T10:04:42;101477.72;;;16.52;46.94
23433;BME280;41331;45.412;10.992;2023-04-09T10:07:10;101468.41;;;17.06;45.62
23433;BME280;41331;45.412;10.992;2023-04-09T10:09:37;101469.50;;;17.29;47.03
23433;BME280;41331;45.412;10.992;2023-04-09T10:12:05;101468.25;;;17.55;48.25
23433;BME280;41331;45.412;10.992;2023-04-09T10:14:33;101470.00;;;17.19;46.55
23433;BME280;41331;45.412;10.992;2023-04-09T10:17:01;101469.53;;;17.17;47.33
23433;BME280;41331;45.412;10.992;2023-04-09T10:19:30;101469.16;;;16.78;47.31
23433;BME280;41331;45.412;10.992;2023-04-09T10:22:04;101471.19;;;16.81;45.80
23433;BME280;41331;45.412;10.992;2023-04-09T10:24:34;101470.03;;;16.70;48.50
23433;BME280;41331;45.412;10.992;2023-04-09T10:27:09;101468.34;;;16.53;46.91
23433;BME280;41331;45.412;10.992;2023-04-09T10:29:41;101462.34;;;16.51;47.89
23433;BME280;41331;45.412;10.992;2023-04-09T10:32:08;101465.22;;;16.55;49.90
23433;BME280;41331;45.412;10.992;2023-04-09T10:34:42;101462.78;;;17.15;47.58
23433;BME280;41331;45.412;10.992;2023-04-09T10:37:13;101459.88;;;16.83;46.12
23433;BME280;41331;45.412;10.992;2023-04-09T10:39:44;101454.94;;;16.76;47.48
23433;BME280;41331;45.412;10.992;2023-04-09T10:42:34;101459.84;;;16.58;48.59
23433;BME280;41331;45.412;10.992;2023-04-09T10:45:03;101452.31;;;16.43;48.58
23433;BME280;41331;45.412;10.992;2023-04-09T10:47:35;101458.00;;;16.14;49.19
23433;BME280;41331;45.412;10.992;2023-04-09T10:50:23;101451.88;;;15.96;48.32
23433;BME280;41331;45.412;10.992;2023-04-09T10:52:52;101451.84;;;16.78;46.52
23433;BME280;41331;45.412;10.992;2023-04-09T10:58:09;101449.81;;;17.15;45.34
23433;BME280;41331;45.412;10.992;2023-04-09T11:00:42;101436.78;;;17.40;46.14
23433;BME280;41331;45.412;10.992;2023-04-09T11:03:19;101442.41;;;17.03;45.40
23433;BME280;41331;45.412;10.992;2023-04-09T11:06:00;101438.00;;;16.74;46.13
23433;BME280;41331;45.412;10.992;2023-04-09T11:08:29;101433.72;;;16.89;45.35
23433;BME280;41331;45.412;10.992;2023-04-09T11:10:57;101439.13;;;16.61;47.24
23433;BME280;41331;45.412;10.992;2023-04-09T11:13:28;101433.06;;;16.68;46.46
23433;BME280;41331;45.412;10.992;2023-04-09T11:15:55;101432.59;;;16.66;45.60
23433;BME280;41331;45.412;10.992;2023-04-09T11:18:26;101435.03;;;16.43;46.25
23433;BME280;41331;45.412;10.992;2023-04-09T11:20:57;101438.91;;;16.42;48.63
23433;BME280;41331;45.412;10.992;2023-04-09T11:23:25;101428.25;;;16.65;48.75
23433;BME280;41331;45.412;10.992;2023-04-09T11:25:53;101430.69;;;17.19;47.51
23433;BME280;41331;45.412;10.992;2023-04-09T11:28:21;101427.38;;;17.41;46.64
23433;BME280;41331;45.412;10.992;2023-04-09T11:30:49;101433.19;;;17.24;46.39
23433;BME280;41331;45.412;10.992;2023-04-09T11:33:16;101438.19;;;17.34;45.49
23433;BME280;41331;45.412;10.992;2023-04-09T11:35:46;101425.88;;;17.44;45.46
23433;BME280;41331;45.412;10.992;2023-04-09T11:38:14;101432.88;;;17.69;44.56
23433;BME280;41331;45.412;10.992;2023-04-09T11:40:41;101427.56;;;17.76;44.71
23433;BME280;41331;45.412;10.992;2023-04-09T11:43:15;101429.63;;;17.79;42.86
23433;BME280;41331;45.412;10.992;2023-04-09T11:45:43;101431.50;;;17.91;42.18
23433;BME280;41331;45.412;10.992;2023-04-09T11:48:12;101432.75;;;17.09;44.18
23433;BME280;41331;45.412;10.992;2023-04-09T11:50:40;101437.41;;;16.69;45.15
23433;BME280;41331;45.412;10.992;2023-04-09T11:53:14;101428.28;;;16.77;46.61
23433;BME280;41331;45.412;10.992;2023-04-09T11:55:41;101433.41;;;16.54;48.14
23433;BME280;41331;45.412;10.992;2023-04-09T11:58:09;101426.09;;;16.58;47.43
23433;BME280;41331;45.412;10.992;2023-04-09T12:00:39;101421.06;;;17.41;43.25
23433;BME280;41331;45.412;10.992;2023-04-09T12:03:06;101426.34;;;17.74;41.93
23433;BME280;41331;45.412;10.992;2023-04-09T12:05:34;101409.94;;;18.76;41.22
23433;BME280;41331;45.412;10.992;2023-04-09T12:08:02;101404.78;;;19.52;41.64
23433;BME280;41331;45.412;10.992;2023-04-09T12:10:32;101411.28;;;19.82;39.39
23433;BME280;41331;45.412;10.992;2023-04-09T12:13:04;101410.19;;;19.87;39.21
23433;BME280;41331;45.412;10.992;2023-04-09T12:15:32;101402.38;;;20.38;38.67
23433;BME280;41331;45.412;10.992;2023-04-09T12:17:59;101401.94;;;20.63;38.08
23433;BME280;41331;45.412;10.992;2023-04-09T12:20:31;101395.53;;;20.06;39.00
23433;BME280;41331;45.412;10.992;2023-04-09T12:23:00;101396.06;;;20.15;38.86
23433;BME280;41331;45.412;10.992;2023-04-09T12:25:29;101382.69;;;19.52;38.80
23433;BME280;41331;45.412;10.992;2023-04-09T12:27:56;101382.03;;;20.01;40.47
23433;BME280;41331;45.412;10.992;2023-04-09T12:30:24;101375.78;;;20.57;39.39
23433;BME280;41331;45.412;10.992;2023-04-09T12:32:52;101371.03;;;20.04;38.21
23433;BME280;41331;45.412;10.992;2023-04-09T12:35:20;101378.97;;;19.21;39.41
23433;BME280;41331;45.412;10.992;2023-04-09T12:37:48;101376.13;;;20.02;40.08
23433;BME280;41331;45.412;10.992;2023-04-09T12:40:15;101373.63;;;19.71;40.20
23433;BME280;41331;45.412;10.992;2023-04-09T12:42:43;101383.63;;;18.78;42.61
23433;BME280;41331;45.412;10.992;2023-04-09T12:45:11;101382.63;;;18.35;43.05
23433;BME280;41331;45.412;10.992;2023-04-09T12:47:39;101380.91;;;18.47;42.50
23433;BME280;41331;45.412;10.992;2023-04-09T12:50:06;101378.47;;;17.94;43.92
23433;BME280;41331;45.412;10.992;2023-04-09T12:52:34;101376.50;;;17.79;44.28
23433;BME280;41331;45.412;10.992;2023-04-09T12:55:02;101376.25;;;18.00;43.03
23433;BME280;41331;45.412;10.992;2023-04-09T12:57:29;101373.59;;;17.44;42.89
23433;BME280;41331;45.412;10.992;2023-04-09T12:59:56;101374.09;;;17.05;44.37
23433;BME280;41331;45.412;10.992;2023-04-09T13:02:24;101380.88;;;16.96;44.12